createdAt,value
2022-11-30T00:01:59.698Z,38.07
2022-11-30T00:06:47.640Z,37.03
2022-11-30T00:11:35.158Z,37.50
2022-11-30T00:16:23.025Z,35.33
2022-11-30T00:21:14.918Z,37.50
2022-11-30T00:26:02.149Z,37.60
2022-11-30T00:31:04.028Z,38.60
2022-11-30T00:36:03.727Z,38.13
2022-11-30T00:40:56.731Z,39.13
2022-11-30T00:45:43.462Z,39.40
2022-11-30T00:50:31.542Z,40.67
2022-11-30T00:55:18.228Z,36.97
2022-11-30T01:00:11.610Z,39.30
2022-11-30T01:04:55.252Z,40.20
2022-11-30T01:09:47.686Z,34.47
2022-11-30T01:14:31.375Z,36.20
2022-11-30T01:19:19.926Z,35.80
2022-11-30T01:24:37.045Z,36.43
2022-11-30T01:29:41.731Z,32.93
2022-11-30T01:34:36.929Z,32.87
2022-11-30T01:39:20.612Z,36.53
2022-11-30T01:44:40.191Z,33.27
2022-11-30T01:49:31.586Z,34.37
2022-11-30T01:54:29.546Z,33.17
2022-11-30T01:59:23.411Z,34.73
2022-11-30T02:04:11.227Z,32.53
2022-11-30T02:08:56.975Z,29.00
2022-11-30T02:14:15.866Z,33.73
2022-11-30T02:19:17.323Z,28.93
2022-11-30T02:24:53.744Z,32.80
2022-11-30T02:29:44.896Z,30.67
2022-11-30T02:34:45.885Z,34.33
2022-11-30T02:39:49.929Z,33.47
2022-11-30T02:44:54.005Z,31.37
2022-11-30T02:54:47.975Z,34.10
2022-11-30T02:59:35.379Z,31.40
2022-11-30T03:04:28.849Z,30.57
2022-11-30T03:09:12.554Z,30.97
2022-11-30T03:13:59.399Z,30.90
2022-11-30T03:18:46.118Z,32.43
2022-11-30T03:23:41.237Z,33.30
2022-11-30T03:28:38.426Z,32.27
2022-11-30T03:33:27.039Z,29.83
2022-11-30T03:43:20.348Z,31.43
2022-11-30T03:48:08.163Z,30.07
2022-11-30T03:52:55.832Z,29.57
2022-11-30T03:58:00.148Z,27.33
2022-11-30T04:02:52.541Z,31.63
2022-11-30T04:07:36.563Z,26.27
2022-11-30T04:12:22.661Z,30.30
2022-11-30T04:17:12.699Z,29.43
2022-11-30T04:22:01.492Z,33.50
2022-11-30T04:26:48.362Z,27.63
2022-11-30T04:31:36.051Z,29.77
2022-11-30T04:36:57.383Z,29.27
2022-11-30T04:41:45.611Z,28.77
2022-11-30T04:46:32.639Z,35.20
2022-11-30T04:51:19.438Z,32.50
2022-11-30T04:56:09.389Z,34.33
2022-11-30T05:00:56.899Z,30.00
2022-11-30T05:05:43.766Z,28.80
2022-11-30T05:10:33.836Z,33.97
2022-11-30T05:15:21.133Z,33.90
2022-11-30T05:20:10.535Z,30.50
2022-11-30T05:24:54.305Z,30.60
2022-11-30T05:29:47.172Z,32.07
2022-11-30T05:34:41.296Z,33.30
2022-11-30T05:39:38.423Z,35.03
2022-11-30T05:44:22.022Z,40.67
2022-11-30T05:49:41.775Z,40.73
2022-11-30T05:54:36.184Z,41.97
2022-11-30T05:59:23.180Z,41.00
2022-11-30T06:04:08.790Z,40.27
2022-11-30T06:08:56.273Z,35.43
2022-11-30T06:13:45.026Z,37.13
2022-11-30T06:19:19.105Z,34.33
2022-11-30T06:24:07.009Z,37.97
2022-11-30T06:29:27.713Z,37.27
2022-11-30T06:40:28.754Z,36.00
2022-11-30T06:45:27.830Z,32.97
2022-11-30T06:56:24.172Z,35.67
2022-11-30T07:01:16.025Z,28.97
2022-11-30T07:06:01.724Z,33.73
2022-11-30T07:11:04.837Z,30.83
2022-11-30T07:15:54.427Z,32.90
2022-11-30T07:20:41.824Z,33.13
2022-11-30T07:31:51.109Z,31.27
2022-11-30T07:49:40.715Z,35.83
2022-11-30T07:55:02.217Z,29.90
2022-11-30T08:00:21.810Z,32.37
2022-11-30T08:05:13.368Z,32.47
2022-11-30T08:10:00.276Z,25.03
2022-11-30T08:15:18.052Z,28.33
2022-11-30T08:19:55.023Z,27.13
2022-11-30T08:24:42.068Z,24.73
2022-11-30T08:29:26.655Z,25.60
2022-11-30T08:34:15.557Z,26.13
2022-11-30T08:39:05.460Z,23.63
2022-11-30T08:44:03.654Z,24.20
2022-11-30T08:49:20.837Z,23.30
2022-11-30T08:54:16.664Z,24.27
2022-11-30T08:59:33.862Z,22.23
2022-11-30T09:04:42.604Z,21.57
2022-11-30T09:09:41.821Z,24.27
2022-11-30T09:14:34.799Z,23.53
2022-11-30T09:19:18.908Z,23.23
2022-11-30T09:24:10.225Z,21.20
2022-11-30T09:28:58.730Z,21.07
2022-11-30T09:33:45.822Z,24.53
2022-11-30T09:39:03.615Z,24.37
2022-11-30T09:44:09.138Z,24.50
2022-11-30T09:49:00.937Z,21.70
2022-11-30T09:54:15.617Z,22.80
2022-11-30T09:59:08.549Z,21.37
2022-11-30T10:03:52.233Z,22.67
2022-11-30T10:09:00.946Z,23.20
2022-11-30T10:14:05.048Z,21.30
2022-11-30T10:19:05.778Z,18.97
2022-11-30T10:24:21.771Z,19.33
2022-11-30T10:29:26.856Z,18.93
2022-11-30T10:34:21.641Z,19.37
2022-11-30T10:40:08.116Z,19.50
2022-11-30T10:45:11.425Z,21.43
2022-11-30T10:49:59.293Z,19.73
2022-11-30T10:54:49.328Z,19.70
2022-11-30T11:00:09.214Z,22.10
2022-11-30T11:05:16.872Z,21.23
2022-11-30T11:10:46.448Z,20.17
2022-11-30T11:15:36.524Z,19.83
2022-11-30T11:20:42.756Z,17.90
2022-11-30T11:25:32.755Z,18.70
2022-11-30T11:30:29.344Z,18.83
2022-11-30T11:35:36.744Z,16.40
2022-11-30T11:40:24.267Z,19.83
2022-11-30T11:45:31.958Z,17.23
2022-11-30T11:51:08.889Z,16.67
2022-11-30T11:55:56.483Z,18.73
2022-11-30T12:00:40.072Z,21.00
2022-11-30T12:05:29.062Z,17.33
2022-11-30T12:10:53.518Z,18.07
2022-11-30T12:16:07.049Z,17.63
2022-11-30T12:20:59.543Z,19.17
2022-11-30T12:25:58.515Z,17.67
2022-11-30T12:31:19.432Z,21.17
2022-11-30T12:36:40.774Z,21.20
2022-11-30T12:41:42.360Z,21.70
2022-11-30T12:46:36.547Z,19.43
2022-11-30T12:51:33.739Z,21.70
2022-11-30T12:56:46.217Z,21.80
2022-11-30T13:01:59.443Z,22.73
2022-11-30T13:06:49.971Z,18.60
2022-11-30T13:11:39.434Z,21.37
2022-11-30T13:16:25.943Z,22.60
2022-11-30T13:21:28.448Z,19.60
2022-11-30T13:26:32.518Z,18.10
2022-11-30T13:31:24.576Z,20.77
2022-11-30T13:36:28.477Z,19.50
2022-11-30T13:41:12.211Z,21.80
2022-11-30T13:46:15.475Z,18.27
2022-11-30T13:51:05.422Z,20.90
2022-11-30T13:56:21.909Z,20.57
2022-11-30T14:01:28.269Z,21.87
2022-11-30T14:06:50.723Z,20.97
2022-11-30T14:11:41.637Z,22.40
2022-11-30T14:16:44.381Z,21.37
2022-11-30T14:21:33.186Z,22.03
2022-11-30T14:26:19.456Z,20.83
2022-11-30T14:31:09.201Z,20.63
2022-11-30T14:35:56.905Z,17.67
2022-11-30T14:40:54.639Z,18.83
2022-11-30T14:46:04.591Z,17.77
2022-11-30T14:51:20.133Z,20.00
2022-11-30T14:56:26.738Z,20.80
2022-11-30T15:01:28.099Z,22.43
2022-11-30T15:06:19.903Z,18.23
2022-11-30T15:11:22.599Z,20.60
2022-11-30T15:16:24.875Z,21.30
2022-11-30T15:21:30.192Z,20.97
2022-11-30T15:26:21.283Z,19.57
2022-11-30T15:31:08.856Z,20.70
2022-11-30T15:41:25.292Z,18.73
2022-11-30T15:46:35.220Z,19.03
2022-11-30T15:51:38.049Z,17.77
2022-11-30T15:56:27.763Z,16.07
2022-11-30T16:01:15.463Z,16.10
2022-11-30T16:06:01.348Z,14.50
2022-11-30T16:10:46.521Z,17.23
2022-11-30T16:15:39.779Z,18.33
2022-11-30T16:20:44.566Z,16.07
2022-11-30T16:25:28.423Z,17.07
2022-11-30T16:30:16.858Z,21.50
2022-11-30T16:35:39.290Z,16.73
2022-11-30T16:40:55.989Z,20.23
2022-11-30T16:45:46.982Z,19.40
2022-11-30T17:07:48.054Z,15.47
2022-11-30T17:12:56.796Z,15.67
2022-11-30T17:17:47.314Z,18.57
2022-11-30T17:22:31.064Z,15.67
2022-11-30T17:27:23.711Z,16.83
2022-11-30T17:32:23.072Z,15.17
2022-11-30T17:37:13.894Z,16.93
2022-11-30T17:42:15.726Z,17.90
2022-11-30T17:47:03.502Z,17.20
2022-11-30T17:51:56.135Z,18.10
2022-11-30T18:02:15.097Z,16.37
2022-11-30T18:07:56.192Z,20.97
2022-11-30T18:12:42.944Z,33.50
2022-11-30T18:17:33.191Z,24.03
2022-11-30T18:22:17.420Z,59.47
2022-11-30T18:27:04.027Z,62.63
2022-11-30T18:32:39.545Z,37.63
2022-11-30T18:37:44.191Z,31.53
2022-11-30T18:42:31.827Z,23.87
2022-11-30T18:47:49.765Z,26.20
2022-11-30T18:53:18.016Z,26.47
2022-11-30T18:58:30.383Z,34.37
2022-11-30T19:03:51.251Z,29.80
2022-11-30T19:08:40.493Z,34.87
2022-11-30T19:13:27.717Z,37.23
2022-11-30T19:18:50.682Z,37.93
2022-11-30T19:24:06.003Z,46.20
2022-11-30T19:29:01.103Z,42.83
2022-11-30T19:33:47.093Z,42.10
2022-11-30T19:38:53.315Z,41.50
2022-11-30T19:43:37.593Z,50.10
2022-11-30T19:48:26.119Z,46.77
2022-11-30T19:53:12.920Z,43.67
2022-11-30T19:58:01.069Z,47.47
2022-11-30T20:02:52.723Z,46.03
2022-11-30T20:07:37.081Z,47.57
2022-11-30T20:12:24.646Z,48.87
2022-11-30T20:17:16.795Z,43.10
2022-11-30T20:22:04.860Z,46.20
2022-11-30T20:26:48.697Z,43.27
2022-11-30T20:31:47.476Z,51.33
2022-11-30T20:36:44.047Z,44.20
2022-11-30T20:41:28.859Z,42.47
2022-11-30T20:46:18.623Z,45.63
2022-11-30T20:51:33.305Z,46.53
2022-11-30T20:56:44.484Z,43.40
2022-11-30T21:01:46.844Z,42.47
2022-11-30T21:07:01.530Z,46.30
2022-11-30T21:17:45.909Z,43.20
2022-11-30T21:27:49.417Z,43.90
2022-11-30T21:32:55.689Z,45.50
2022-11-30T21:38:31.848Z,44.37
2022-11-30T21:49:41.450Z,38.73
2022-11-30T21:55:03.854Z,40.63
2022-11-30T22:01:07.260Z,41.93
2022-11-30T22:06:02.771Z,44.37
2022-11-30T22:11:16.561Z,41.67
2022-11-30T22:16:23.158Z,44.50
2022-11-30T22:21:14.581Z,39.47
2022-11-30T22:26:15.912Z,42.33
2022-11-30T22:31:05.268Z,42.73
2022-11-30T22:35:52.653Z,44.27
2022-11-30T22:40:44.710Z,41.13
2022-11-30T22:45:32.049Z,42.70
2022-11-30T22:50:36.052Z,43.60
2022-11-30T22:55:24.565Z,47.20
2022-11-30T23:00:39.781Z,43.23
2022-11-30T23:05:31.724Z,42.50
2022-11-30T23:10:19.580Z,41.57
2022-11-30T23:15:23.231Z,38.27
2022-11-30T23:20:20.554Z,41.13
2022-11-30T23:26:03.227Z,42.40
2022-11-30T23:30:48.653Z,42.37
2022-11-30T23:35:36.897Z,47.07
2022-11-30T23:40:36.836Z,44.43
2022-11-30T23:45:30.061Z,49.53
2022-11-30T23:50:15.439Z,46.40
